Time;durP1;ratioP1;P1;durP2;ratioP2;P2;SDS_P1;SDS_P2;PMS_P1;PMS_P2;Temp;Humidity;BMP_temperature;BMP_pressure;BME280_temperature;BME280_humidity;BME280_pressure;Samples;Min_cycle;Max_cycle;Signal;HPM_P1;HPM_P2
2023/02/13 00:00:24;;;;;;;1.40;0.70;;;;;;;;;;105489;1252;60415;-46
2023/02/13 00:02:52;;;;;;;4.20;1.20;;;;;;;;;;105353;1255;61848;-45
2023/02/13 00:05:20;;;;;;;1.60;0.70;;;;;;;;;;105478;1254;60422;-48
2023/02/13 00:07:48;;;;;;;2.80;0.80;;;;;;;;;;105328;1253;60823;-46
2023/02/13 00:10:17;;;;;;;2.20;0.70;;;;;;;;;;105764;1255;60854;-45
2023/02/13 00:12:46;;;;;;;3.00;0.90;;;;;;;;;;106006;1253;60479;-46
2023/02/13 00:15:17;;;;;;;3.90;0.70;;;;;;;;;;105153;1251;61988;-45
2023/02/13 00:17:45;;;;;;;4.90;0.80;;;;;;;;;;105377;1256;60394;-46
2023/02/13 00:20:13;;;;;;;3.70;0.90;;;;;;;;;;105380;1253;60384;-44
2023/02/13 00:22:41;;;;;;;4.60;1.10;;;;;;;;;;105940;1255;60606;-45
2023/02/13 00:25:09;;;;;;;5.00;1.00;;;;;;;;;;105283;1251;60510;-45
2023/02/13 00:27:40;;;;;;;6.40;1.10;;;;;;;;;;105269;1253;62427;-44
2023/02/13 00:30:09;;;;;;;3.20;1.30;;;;;;;;;;108150;1253;60408;-46
2023/02/13 00:32:37;;;;;;;5.10;1.70;;;;;;;;;;105111;1258;60643;-44
2023/02/13 00:35:05;;;;;;;6.20;0.90;;;;;;;;;;105528;1255;60560;-45
2023/02/13 00:37:33;;;;;;;4.00;1.00;;;;;;;;;;105225;1254;60534;-45
2023/02/13 00:40:01;;;;;;;3.10;1.10;;;;;;;;;;105747;1253;62222;-45
2023/02/13 00:42:29;;;;;;;6.30;1.10;;;;;;;;;;106124;1256;60428;-46
2023/02/13 00:44:58;;;;;;;5.90;1.10;;;;;;;;;;106317;1251;60825;-45
2023/02/13 00:47:26;;;;;;;5.00;1.20;;;;;;;;;;105691;1256;60530;-45
2023/02/13 00:49:54;;;;;;;4.30;0.90;;;;;;;;;;105241;1251;60421;-46
2023/02/13 00:52:22;;;;;;;5.10;1.00;;;;;;;;;;106753;1255;61340;-43
2023/02/13 00:54:50;;;;;;;1.50;0.60;;;;;;;;;;107186;1256;58564;-44
2023/02/13 00:57:38;;;;;;;3.80;0.70;;;;;;;;;;105328;1255;60537;-46
2023/02/13 01:00:06;;;;;;;4.60;0.80;;;;;;;;;;105061;1253;60528;-47
2023/02/13 01:02:35;;;;;;;3.30;0.60;;;;;;;;;;105738;1254;61012;-47
2023/02/13 01:05:04;;;;;;;1.70;0.70;;;;;;;;;;105382;1257;61816;-43
2023/02/13 01:07:32;;;;;;;2.90;0.80;;;;;;;;;;105355;1253;60544;-46
2023/02/13 01:10:00;;;;;;;1.90;0.60;;;;;;;;;;104990;1253;60547;-45
2023/02/13 01:12:28;;;;;;;1.60;0.60;;;;;;;;;;105411;1256;60280;-46
2023/02/13 01:14:55;;;;;;;1.90;0.70;;;;;;;;;;105254;1251;60403;-46
2023/02/13 01:17:25;;;;;;;5.00;1.00;;;;;;;;;;105990;1255;61944;-46
2023/02/13 01:19:54;;;;;;;2.00;0.70;;;;;;;;;;105972;1255;60429;-48
2023/02/13 01:22:24;;;;;;;4.30;0.90;;;;;;;;;;105385;1253;61659;-45
2023/02/13 01:24:52;;;;;;;2.30;1.20;;;;;;;;;;105435;1252;60530;-46
2023/02/13 01:27:20;;;;;;;3.10;1.20;;;;;;;;;;105644;1257;59636;-46
2023/02/13 01:29:51;;;;;;;3.80;1.10;;;;;;;;;;105206;1256;62125;-45
2023/02/13 01:32:19;;;;;;;3.90;1.00;;;;;;;;;;105338;1254;60621;-44
2023/02/13 01:34:47;;;;;;;1.80;1.00;;;;;;;;;;105925;1253;60492;-45
2023/02/13 01:37:19;;;;;;;1.00;0.50;;;;;;;;;;105575;1255;60604;-45
2023/02/13 01:39:49;;;;;;;3.90;0.60;;;;;;;;;;105465;1256;60396;-44
2023/02/13 01:42:21;;;;;;;5.30;0.80;;;;;;;;;;105624;1251;60951;-45
2023/02/13 01:44:50;;;;;;;1.10;0.60;;;;;;;;;;105787;1255;60415;-44
2023/02/13 01:47:34;;;;;;;1.50;0.60;;;;;;;;;;105066;1258;60450;-46
2023/02/13 01:50:07;;;;;;;2.40;0.40;;;;;;;;;;105450;1255;60533;-44
2023/02/13 01:52:37;;;;;;;3.50;0.50;;;;;;;;;;105245;1257;60537;-43
2023/02/13 01:55:05;;;;;;;1.40;0.70;;;;;;;;;;105178;1253;62092;-46
2023/02/13 01:57:34;;;;;;;2.80;0.50;;;;;;;;;;106681;1255;58933;-44
2023/02/13 02:00:06;;;;;;;3.00;0.60;;;;;;;;;;106103;1251;60642;-45
2023/02/13 02:02:48;;;;;;;2.00;0.50;;;;;;;;;;105955;1251;60428;-43
2023/02/13 02:05:17;;;;;;;3.30;0.50;;;;;;;;;;105895;1253;60493;-43
2023/02/13 02:07:48;;;;;;;2.30;0.50;;;;;;;;;;105743;1251;62201;-48
2023/02/13 02:10:21;;;;;;;3.00;0.70;;;;;;;;;;105818;1256;60403;-47
2023/02/13 02:12:52;;;;;;;2.10;0.70;;;;;;;;;;105215;1253;60412;-46
2023/02/13 02:15:20;;;;;;;2.50;0.90;;;;;;;;;;106187;1257;60514;-46
2023/02/13 02:17:49;;;;;;;5.40;0.80;;;;;;;;;;105640;1253;60395;-45
2023/02/13 02:20:20;;;;;;;1.70;0.80;;;;;;;;;;105351;1252;62160;-47
2023/02/13 02:23:10;;;;;;;3.80;0.80;;;;;;;;;;106398;1254;60406;-47
2023/02/13 02:25:44;;;;;;;3.30;0.80;;;;;;;;;;105448;1256;61302;-46
2023/02/13 02:28:23;;;;;;;8.30;1.00;;;;;;;;;;105896;1254;60584;-46
2023/02/13 02:30:52;;;;;;;4.10;1.00;;;;;;;;;;106014;1255;60353;-47
2023/02/13 02:33:26;;;;;;;4.20;1.20;;;;;;;;;;106066;1253;61800;-45
2023/02/13 02:36:09;;;;;;;2.10;0.80;;;;;;;;;;105481;1256;60638;-46
2023/02/13 02:38:56;;;;;;;5.00;0.80;;;;;;;;;;106608;1258;60727;-47
2023/02/13 02:41:49;;;;;;;4.80;1.30;;;;;;;;;;105418;1251;60524;-46
2023/02/13 02:44:19;;;;;;;3.50;1.00;;;;;;;;;;105798;1256;60581;-47
2023/02/13 02:49:58;;;;;;;2.10;0.60;;;;;;;;;;105312;1252;60524;-44
2023/02/13 02:52:28;;;;;;;2.20;0.70;;;;;;;;;;105010;1256;60530;-48
2023/02/13 02:55:07;;;;;;;4.10;0.60;;;;;;;;;;105825;1258;60461;-43
2023/02/13 03:07:18;;;;;;;1.60;0.50;;;;;;;;;;104693;1264;59145;-46
2023/02/13 03:15:30;;;;;;;4.20;0.80;;;;;;;;;;104762;1264;150452;-45
2023/02/13 03:23:43;;;;;;;0.80;0.50;;;;;;;;;;105270;1260;60817;-46
2023/02/13 03:26:20;;;;;;;1.60;0.50;;;;;;;;;;104703;1265;58910;-45
2023/02/13 03:32:00;;;;;;;1.70;0.60;;;;;;;;;;104568;1262;59742;-43
2023/02/13 03:37:53;;;;;;;4.00;0.70;;;;;;;;;;104661;1261;61071;-44
2023/02/13 03:40:17;;;;;;;5.30;1.00;;;;;;;;;;108054;1261;59726;-46
2023/02/13 03:42:51;;;;;;;2.60;0.80;;;;;;;;;;105659;1264;60642;-44
2023/02/13 03:48:08;;;;;;;3.10;0.60;;;;;;;;;;104563;1266;59627;-43
2023/02/13 03:50:38;;;;;;;1.60;0.60;;;;;;;;;;104805;1261;61206;-47
2023/02/13 03:53:07;;;;;;;2.10;0.50;;;;;;;;;;104813;1264;59747;-46
2023/02/13 04:01:17;;;;;;;5.90;0.50;;;;;;;;;;105421;1255;59693;-45
2023/02/13 04:03:48;;;;;;;1.30;0.40;;;;;;;;;;105755;1260;61374;-44
2023/02/13 04:06:17;;;;;;;1.90;1.10;;;;;;;;;;105195;1259;59590;-47
2023/02/13 04:08:45;;;;;;;2.30;0.70;;;;;;;;;;105402;1255;61215;-43
2023/02/13 04:11:14;;;;;;;2.90;0.60;;;;;;;;;;105350;1259;59627;-43
2023/02/13 04:13:51;;;;;;;1.70;0.50;;;;;;;;;;107032;1260;59338;-47
2023/02/13 04:16:20;;;;;;;2.50;0.50;;;;;;;;;;104903;1258;60688;-45
2023/02/13 04:18:48;;;;;;;2.30;0.60;;;;;;;;;;105455;1259;59605;-44
2023/02/13 04:21:16;;;;;;;3.50;0.50;;;;;;;;;;105237;1260;60463;-46
2023/02/13 04:23:44;;;;;;;3.80;1.20;;;;;;;;;;105273;1254;59545;-45
2023/02/13 04:26:21;;;;;;;3.80;0.60;;;;;;;;;;105164;1259;59615;-45
2023/02/13 04:28:49;;;;;;;2.20;0.70;;;;;;;;;;105484;1258;60319;-47
2023/02/13 04:31:17;;;;;;;1.80;0.50;;;;;;;;;;105072;1255;58940;-44
2023/02/13 04:33:45;;;;;;;1.30;0.50;;;;;;;;;;105560;1259;60804;-43
2023/02/13 04:36:13;;;;;;;1.40;0.70;;;;;;;;;;106509;1255;59637;-44
2023/02/13 04:38:40;;;;;;;1.80;0.90;;;;;;;;;;105327;1258;59730;-45
2023/02/13 04:41:08;;;;;;;1.50;0.50;;;;;;;;;;105391;1259;61252;-45
2023/02/13 04:43:38;;;;;;;1.90;0.70;;;;;;;;;;105196;1260;59692;-43
2023/02/13 04:46:06;;;;;;;1.50;0.60;;;;;;;;;;105617;1259;60440;-46
2023/02/13 04:48:34;;;;;;;4.20;0.60;;;;;;;;;;105651;1260;59759;-44
2023/02/13 04:51:05;;;;;;;2.30;0.80;;;;;;;;;;105171;1256;59602;-45
2023/02/13 04:53:33;;;;;;;1.80;0.70;;;;;;;;;;105401;1255;61037;-44
2023/02/13 04:56:01;;;;;;;2.70;0.70;;;;;;;;;;105421;1258;59624;-46
2023/02/13 04:58:30;;;;;;;4.60;0.70;;;;;;;;;;105527;1260;60574;-45
2023/02/13 05:00:58;;;;;;;3.00;0.80;;;;;;;;;;105129;1258;59737;-45
2023/02/13 05:03:27;;;;;;;1.20;0.70;;;;;;;;;;105044;1254;59753;-46
2023/02/13 05:05:55;;;;;;;2.70;0.70;;;;;;;;;;105638;1256;61298;-47
2023/02/13 05:08:23;;;;;;;1.90;0.70;;;;;;;;;;107093;1257;58911;-43
2023/02/13 05:10:51;;;;;;;2.00;0.70;;;;;;;;;;105280;1260;60799;-46
2023/02/13 05:13:20;;;;;;;1.50;0.70;;;;;;;;;;104872;1260;59897;-45
2023/02/13 05:15:48;;;;;;;1.80;0.70;;;;;;;;;;105020;1254;59971;-44
2023/02/13 05:18:16;;;;;;;3.20;0.70;;;;;;;;;;105649;1258;60347;-45
2023/02/13 05:20:44;;;;;;;2.40;0.70;;;;;;;;;;105066;1257;60410;-44
2023/02/13 05:23:21;;;;;;;2.10;0.70;;;;;;;;;;104882;1253;59886;-48
2023/02/13 05:25:49;;;;;;;2.60;0.60;;;;;;;;;;105005;1253;59613;-45
2023/02/13 05:31:04;;;;;;;1.60;0.70;;;;;;;;;;105457;1260;61311;-43
2023/02/13 05:33:32;;;;;;;3.40;1.00;;;;;;;;;;106272;1253;59499;-46
2023/02/13 05:36:00;;;;;;;3.80;0.80;;;;;;;;;;105248;1255;61063;-45
2023/02/13 05:38:28;;;;;;;3.50;1.00;;;;;;;;;;105354;1256;59975;-45
2023/02/13 05:40:58;;;;;;;3.00;0.80;;;;;;;;;;105507;1256;59650;-45
2023/02/13 05:43:26;;;;;;;1.30;0.60;;;;;;;;;;109319;1251;61633;-47
2023/02/13 05:46:01;;;;;;;3.30;0.90;;;;;;;;;;106904;1251;59643;-45
2023/02/13 05:48:31;;;;;;;2.70;0.90;;;;;;;;;;105516;1263;60554;-45
2023/02/13 05:50:59;;;;;;;6.50;1.20;;;;;;;;;;105389;1251;59709;-46
2023/02/13 05:53:28;;;;;;;2.70;0.80;;;;;;;;;;105167;1251;59753;-46
2023/02/13 05:55:56;;;;;;;2.80;0.70;;;;;;;;;;105909;1256;61501;-44
2023/02/13 05:58:24;;;;;;;1.80;0.80;;;;;;;;;;105440;1256;59701;-46
2023/02/13 06:00:53;;;;;;;2.70;1.00;;;;;;;;;;105442;1264;60797;-46
2023/02/13 06:03:22;;;;;;;3.20;0.90;;;;;;;;;;108626;1252;58819;-44
2023/02/13 06:05:52;;;;;;;2.90;0.80;;;;;;;;;;105204;1257;59500;-44
2023/02/13 06:08:21;;;;;;;4.80;0.80;;;;;;;;;;106528;1251;61471;-45
2023/02/13 06:10:52;;;;;;;3.40;0.90;;;;;;;;;;106872;1256;59003;-45
2023/02/13 06:13:21;;;;;;;2.20;0.90;;;;;;;;;;105125;1251;60839;-45
2023/02/13 06:15:49;;;;;;;2.00;1.00;;;;;;;;;;108460;1252;59697;-46
2023/02/13 06:18:18;;;;;;;3.00;1.10;;;;;;;;;;105306;1257;59688;-45
2023/02/13 06:20:46;;;;;;;2.30;0.90;;;;;;;;;;105394;1255;61533;-44
2023/02/13 06:23:15;;;;;;;2.30;1.10;;;;;;;;;;105221;1257;59702;-45
2023/02/13 06:25:42;;;;;;;3.30;0.90;;;;;;;;;;106180;1257;60688;-44
2023/02/13 06:28:10;;;;;;;3.70;1.00;;;;;;;;;;105153;1251;59673;-45
2023/02/13 06:30:38;;;;;;;3.50;1.20;;;;;;;;;;105238;1251;59621;-48
2023/02/13 06:33:06;;;;;;;3.90;1.10;;;;;;;;;;105337;1257;61717;-44
2023/02/13 06:35:35;;;;;;;2.10;0.90;;;;;;;;;;106474;1257;58987;-44
2023/02/13 06:38:03;;;;;;;3.60;1.00;;;;;;;;;;105217;1256;59834;-44
2023/02/13 06:40:33;;;;;;;3.30;1.20;;;;;;;;;;105442;1254;60044;-47
2023/02/13 06:43:02;;;;;;;3.40;1.20;;;;;;;;;;105418;1256;59593;-46
2023/02/13 06:45:30;;;;;;;3.30;1.80;;;;;;;;;;109098;1253;60030;-44
2023/02/13 06:48:01;;;;;;;3.60;1.70;;;;;;;;;;105593;1256;59556;-44
2023/02/13 06:50:29;;;;;;;5.70;1.90;;;;;;;;;;106997;1256;59603;-44
2023/02/13 06:52:58;;;;;;;6.20;1.80;;;;;;;;;;105359;1258;59754;-42
2023/02/13 06:55:26;;;;;;;6.60;1.80;;;;;;;;;;106121;1257;59020;-46
2023/02/13 06:57:55;;;;;;;5.00;1.80;;;;;;;;;;105638;1257;61064;-44
2023/02/13 07:00:25;;;;;;;4.90;2.00;;;;;;;;;;105367;1255;61118;-43
2023/02/13 07:02:54;;;;;;;3.60;1.40;;;;;;;;;;106588;1256;60730;-47
2023/02/13 07:05:23;;;;;;;3.00;1.70;;;;;;;;;;105853;1261;59814;-44
2023/02/13 07:07:52;;;;;;;4.70;2.00;;;;;;;;;;105526;1251;59621;-45
2023/02/13 07:10:20;;;;;;;3.40;1.70;;;;;;;;;;105610;1251;61172;-43
2023/02/13 07:12:50;;;;;;;5.40;2.00;;;;;;;;;;106585;1257;59502;-47
2023/02/13 07:15:33;;;;;;;3.40;2.30;;;;;;;;;;105471;1251;62247;-44
2023/02/13 07:18:02;;;;;;;3.60;2.20;;;;;;;;;;105979;1257;60506;-46
2023/02/13 07:20:31;;;;;;;6.70;3.10;;;;;;;;;;104967;1257;60348;-45
2023/02/13 07:23:00;;;;;;;4.60;2.80;;;;;;;;;;106101;1255;62130;-44
2023/02/13 07:25:30;;;;;;;9.60;3.60;;;;;;;;;;105262;1254;61083;-45
2023/02/13 07:28:02;;;;;;;8.30;3.30;;;;;;;;;;105129;1257;61093;-46
2023/02/13 07:30:31;;;;;;;6.30;3.10;;;;;;;;;;105569;1256;60396;-49
2023/02/13 07:33:00;;;;;;;4.80;2.70;;;;;;;;;;106476;1251;60504;-47
2023/02/13 07:35:29;;;;;;;10.60;4.50;;;;;;;;;;105551;1256;62018;-46
2023/02/13 07:37:59;;;;;;;11.80;6.70;;;;;;;;;;105375;1251;62641;-47
2023/02/13 07:40:29;;;;;;;13.70;6.50;;;;;;;;;;107791;1254;59824;-44
2023/02/13 07:42:58;;;;;;;10.70;5.80;;;;;;;;;;106729;1255;60488;-44
2023/02/13 07:45:28;;;;;;;9.80;5.50;;;;;;;;;;107550;1251;58869;-45
2023/02/13 07:47:57;;;;;;;9.30;4.30;;;;;;;;;;109332;1251;62136;-47
2023/02/13 07:50:26;;;;;;;7.40;4.70;;;;;;;;;;108182;1251;60411;-45
2023/02/13 07:52:55;;;;;;;10.20;5.20;;;;;;;;;;105261;1256;60785;-47
2023/02/13 07:55:23;;;;;;;7.30;5.10;;;;;;;;;;105858;1251;60544;-47
2023/02/13 07:57:51;;;;;;;8.40;5.80;;;;;;;;;;105119;1251;60443;-46
2023/02/13 08:00:20;;;;;;;9.90;4.50;;;;;;;;;;107047;1257;62387;-47
2023/02/13 08:02:48;;;;;;;6.60;4.70;;;;;;;;;;105519;1257;60425;-46
2023/02/13 08:05:17;;;;;;;6.30;4.40;;;;;;;;;;106668;1251;60666;-42
2023/02/13 08:07:46;;;;;;;8.90;4.50;;;;;;;;;;105667;1254;61166;-46
2023/02/13 08:13:06;;;;;;;8.90;5.40;;;;;;;;;;105002;1251;62727;-47
2023/02/13 08:15:35;;;;;;;8.80;5.40;;;;;;;;;;104912;1257;60457;-44
2023/02/13 08:18:03;;;;;;;10.30;6.50;;;;;;;;;;105660;1257;60547;-47
2023/02/13 08:20:32;;;;;;;11.30;6.90;;;;;;;;;;105334;1257;60531;-46
2023/02/13 08:23:06;;;;;;;10.80;6.80;;;;;;;;;;107514;1254;58937;-46
2023/02/13 08:25:36;;;;;;;10.20;6.30;;;;;;;;;;107828;1251;61892;-48
2023/02/13 08:28:04;;;;;;;10.50;6.30;;;;;;;;;;107422;1251;60154;-47
2023/02/13 08:30:32;;;;;;;13.00;6.00;;;;;;;;;;109314;1251;60672;-50
2023/02/13 08:33:01;;;;;;;11.70;5.90;;;;;;;;;;105409;1251;61108;-46
2023/02/13 08:35:30;;;;;;;11.10;6.90;;;;;;;;;;106149;1251;60402;-44
2023/02/13 08:38:02;;;;;;;8.20;6.30;;;;;;;;;;106212;1256;62379;-46
2023/02/13 08:40:30;;;;;;;12.00;6.90;;;;;;;;;;104998;1251;61111;-46
2023/02/13 08:42:59;;;;;;;10.40;7.40;;;;;;;;;;105239;1251;61242;-47
2023/02/13 08:45:28;;;;;;;10.80;7.20;;;;;;;;;;105430;1257;60534;-46
2023/02/13 08:47:56;;;;;;;13.00;7.90;;;;;;;;;;105294;1256;60510;-47
2023/02/13 08:50:24;;;;;;;9.80;7.00;;;;;;;;;;104991;1251;61924;-47
2023/02/13 08:52:53;;;;;;;11.20;8.20;;;;;;;;;;109097;1254;58700;-51
2023/02/13 08:55:21;;;;;;;12.50;8.80;;;;;;;;;;109209;1251;60450;-51
2023/02/13 08:57:52;;;;;;;14.60;7.80;;;;;;;;;;109267;1251;58417;-48
2023/02/13 09:00:20;;;;;;;11.60;6.70;;;;;;;;;;109220;1251;58874;-49
2023/02/13 09:02:49;;;;;;;11.40;7.40;;;;;;;;;;109284;1251;62258;-50
2023/02/13 09:05:18;;;;;;;13.40;7.20;;;;;;;;;;105047;1257;59230;-49
2023/02/13 09:07:47;;;;;;;14.70;8.00;;;;;;;;;;104642;1251;62191;-48
2023/02/13 09:10:15;;;;;;;14.90;9.00;;;;;;;;;;105827;1254;60555;-46
2023/02/13 09:12:43;;;;;;;13.30;7.80;;;;;;;;;;107006;1251;58956;-51
2023/02/13 09:15:11;;;;;;;13.30;8.60;;;;;;;;;;105868;1251;62359;-52
2023/02/13 09:17:39;;;;;;;13.10;9.10;;;;;;;;;;105001;1251;60479;-48
2023/02/13 09:20:08;;;;;;;15.30;9.00;;;;;;;;;;108770;1251;60863;-49
2023/02/13 09:22:37;;;;;;;12.50;7.70;;;;;;;;;;104880;1251;60406;-47
2023/02/13 09:25:05;;;;;;;13.20;8.70;;;;;;;;;;105246;1251;60746;-47
2023/02/13 09:27:34;;;;;;;11.10;7.80;;;;;;;;;;105121;1251;62178;-49
2023/02/13 09:30:02;;;;;;;11.20;7.80;;;;;;;;;;105176;1251;60622;-49
2023/02/13 09:32:31;;;;;;;12.50;7.90;;;;;;;;;;105133;1251;60810;-51
2023/02/13 09:34:59;;;;;;;13.40;7.80;;;;;;;;;;109195;1251;59813;-48
2023/02/13 09:37:27;;;;;;;15.70;9.50;;;;;;;;;;109152;1251;58113;-51
2023/02/13 09:39:55;;;;;;;13.30;8.70;;;;;;;;;;106459;1251;62988;-49
2023/02/13 09:42:25;;;;;;;12.60;9.00;;;;;;;;;;107099;1251;59236;-48
2023/02/13 09:44:54;;;;;;;19.00;10.30;;;;;;;;;;105371;1256;60766;-50
2023/02/13 09:47:22;;;;;;;12.50;9.10;;;;;;;;;;106361;1257;60524;-49
2023/02/13 09:49:51;;;;;;;14.90;9.10;;;;;;;;;;105248;1251;60541;-50
2023/02/13 09:52:19;;;;;;;15.10;9.30;;;;;;;;;;107492;1251;62160;-49
2023/02/13 09:54:48;;;;;;;12.10;7.30;;;;;;;;;;106276;1251;60427;-49
2023/02/13 09:57:29;;;;;;;10.90;8.10;;;;;;;;;;105143;1256;60784;-46
2023/02/13 09:59:57;;;;;;;10.20;7.40;;;;;;;;;;107793;1254;60408;-50
2023/02/13 10:02:45;;;;;;;14.30;8.30;;;;;;;;;;105245;1251;60626;-48
2023/02/13 10:05:32;;;;;;;14.80;9.10;;;;;;;;;;105109;1251;61933;-50
2023/02/13 10:08:00;;;;;;;17.30;10.30;;;;;;;;;;107025;1251;59042;-49
2023/02/13 10:10:38;;;;;;;14.80;9.10;;;;;;;;;;107998;1251;60999;-51
2023/02/13 10:13:09;;;;;;;14.60;9.20;;;;;;;;;;105239;1251;61240;-50
2023/02/13 10:15:40;;;;;;;15.80;9.60;;;;;;;;;;105186;1251;60445;-48
2023/02/13 10:18:09;;;;;;;11.00;7.50;;;;;;;;;;109228;1251;61903;-48
2023/02/13 10:20:42;;;;;;;11.10;7.60;;;;;;;;;;108577;1253;58170;-48
2023/02/13 10:23:09;;;;;;;15.10;8.00;;;;;;;;;;105308;1257;60808;-48
2023/02/13 10:26:01;;;;;;;13.50;9.20;;;;;;;;;;105240;1252;60419;-47
2023/02/13 10:28:38;;;;;;;16.50;9.60;;;;;;;;;;109251;1251;59239;-48
2023/02/13 10:31:10;;;;;;;14.50;9.10;;;;;;;;;;109160;1251;61280;-48
2023/02/13 10:33:38;;;;;;;13.30;8.50;;;;;;;;;;109252;1251;58637;-48
2023/02/13 10:36:09;;;;;;;10.10;7.00;;;;;;;;;;109247;1251;59934;-50
2023/02/13 10:38:55;;;;;;;11.70;7.40;;;;;;;;;;105068;1254;60343;-50
2023/02/13 10:41:32;;;;;;;11.60;7.70;;;;;;;;;;105461;1257;60441;-49
2023/02/13 10:44:01;;;;;;;10.30;6.60;;;;;;;;;;106264;1251;62203;-49
2023/02/13 10:46:33;;;;;;;12.20;7.00;;;;;;;;;;105204;1254;60620;-48
2023/02/13 10:49:19;;;;;;;11.30;7.60;;;;;;;;;;108093;1255;61224;-50
2023/02/13 10:51:51;;;;;;;12.30;7.70;;;;;;;;;;105075;1257;60353;-48
2023/02/13 10:54:25;;;;;;;9.60;6.90;;;;;;;;;;106224;1255;60434;-46
2023/02/13 10:56:56;;;;;;;12.30;5.80;;;;;;;;;;108876;1251;63682;-50
2023/02/13 10:59:30;;;;;;;7.90;6.20;;;;;;;;;;105734;1256;60357;-48
2023/02/13 11:02:14;;;;;;;8.10;5.60;;;;;;;;;;105264;1251;61026;-53
2023/02/13 11:04:42;;;;;;;8.50;5.80;;;;;;;;;;105194;1251;60536;-49
2023/02/13 11:07:11;;;;;;;7.30;5.90;;;;;;;;;;105453;1251;60555;-50
2023/02/13 11:09:40;;;;;;;7.70;5.90;;;;;;;;;;108694;1256;62057;-48
2023/02/13 11:12:28;;;;;;;8.60;5.90;;;;;;;;;;105407;1251;60286;-49
2023/02/13 11:15:07;;;;;;;7.60;5.70;;;;;;;;;;105605;1251;60444;-52
2023/02/13 11:17:40;;;;;;;7.30;4.60;;;;;;;;;;105596;1250;60583;-51
2023/02/13 11:20:22;;;;;;;9.20;5.80;;;;;;;;;;105750;1251;60447;-49
2023/02/13 11:22:50;;;;;;;6.30;5.10;;;;;;;;;;105240;1250;61860;-53
2023/02/13 11:25:19;;;;;;;6.40;4.40;;;;;;;;;;105242;1251;60424;-52
2023/02/13 11:27:48;;;;;;;6.80;4.80;;;;;;;;;;105846;1254;60755;-49
2023/02/13 11:30:16;;;;;;;5.60;4.40;;;;;;;;;;105296;1253;60510;-50
2023/02/13 11:32:44;;;;;;;6.90;4.70;;;;;;;;;;105481;1250;60885;-53
2023/02/13 11:35:26;;;;;;;6.70;5.40;;;;;;;;;;105619;1253;61969;-53
2023/02/13 11:38:09;;;;;;;4.60;3.50;;;;;;;;;;105341;1251;60736;-48
2023/02/13 11:40:37;;;;;;;5.20;4.60;;;;;;;;;;105723;1254;60757;-53
2023/02/13 11:43:06;;;;;;;5.10;3.50;;;;;;;;;;108657;1250;60616;-50
2023/02/13 11:45:33;;;;;;;3.90;2.70;;;;;;;;;;105956;1250;60415;-52
2023/02/13 11:48:01;;;;;;;3.10;2.80;;;;;;;;;;105268;1251;62318;-52
2023/02/13 11:50:36;;;;;;;4.90;3.10;;;;;;;;;;104943;1251;60480;-52
2023/02/13 11:53:06;;;;;;;3.80;2.80;;;;;;;;;;105081;1250;60961;-50
2023/02/13 11:55:39;;;;;;;5.20;3.70;;;;;;;;;;108072;1251;60466;-52
2023/02/13 11:58:10;;;;;;;4.50;3.10;;;;;;;;;;107540;1250;60557;-49
2023/02/13 12:00:38;;;;;;;5.00;3.30;;;;;;;;;;106392;1250;62340;-50
2023/02/13 12:03:19;;;;;;;6.90;2.90;;;;;;;;;;105684;1251;60879;-53
2023/02/13 12:06:02;;;;;;;3.70;2.60;;;;;;;;;;106520;1252;60319;-50
2023/02/13 12:08:31;;;;;;;5.00;2.60;;;;;;;;;;105018;1251;60410;-53
2023/02/13 12:11:02;;;;;;;4.60;3.40;;;;;;;;;;107442;1250;58463;-49
2023/02/13 12:13:37;;;;;;;4.30;2.30;;;;;;;;;;106737;1250;61914;-50
2023/02/13 12:16:13;;;;;;;4.60;2.80;;;;;;;;;;105428;1252;62142;-51
2023/02/13 12:18:43;;;;;;;5.30;3.60;;;;;;;;;;105297;1251;60887;-50
2023/02/13 12:21:31;;;;;;;4.80;3.90;;;;;;;;;;105419;1251;60518;-53
2023/02/13 12:24:09;;;;;;;5.40;3.40;;;;;;;;;;105158;1251;60497;-53
2023/02/13 12:26:41;;;;;;;6.30;4.10;;;;;;;;;;105688;1250;62321;-51
2023/02/13 12:29:24;;;;;;;7.10;3.10;;;;;;;;;;105979;1251;61286;-50
2023/02/13 12:31:55;;;;;;;5.00;3.60;;;;;;;;;;106906;1250;60781;-47
2023/02/13 12:34:46;;;;;;;6.40;3.50;;;;;;;;;;105474;1254;60428;-48
2023/02/13 12:37:41;;;;;;;4.90;3.50;;;;;;;;;;105354;1251;60371;-48
2023/02/13 12:40:14;;;;;;;3.50;3.10;;;;;;;;;;105232;1250;62149;-52
2023/02/13 12:43:02;;;;;;;3.70;3.00;;;;;;;;;;105298;1254;60419;-46
2023/02/13 12:45:39;;;;;;;4.70;3.40;;;;;;;;;;105343;1253;60499;-49
2023/02/13 12:48:07;;;;;;;5.40;3.60;;;;;;;;;;105348;1253;60540;-49
2023/02/13 12:50:58;;;;;;;4.80;4.20;;;;;;;;;;106434;1254;60860;-48
2023/02/13 12:53:39;;;;;;;5.40;2.70;;;;;;;;;;105202;1259;62198;-51
2023/02/13 12:56:08;;;;;;;3.70;2.70;;;;;;;;;;105404;1253;60886;-50
2023/02/13 12:58:36;;;;;;;4.30;3.00;;;;;;;;;;109241;1251;61969;-49
2023/02/13 13:01:05;;;;;;;4.20;2.60;;;;;;;;;;106168;1251;60438;-52
2023/02/13 13:03:34;;;;;;;4.00;2.30;;;;;;;;;;109395;1250;58400;-51
2023/02/13 13:06:21;;;;;;;3.40;2.80;;;;;;;;;;106648;1253;62185;-50
2023/02/13 13:09:09;;;;;;;2.50;2.30;;;;;;;;;;105888;1251;60429;-48
2023/02/13 13:11:50;;;;;;;4.80;3.00;;;;;;;;;;105519;1251;60691;-49
2023/02/13 13:14:21;;;;;;;7.00;3.20;;;;;;;;;;105009;1250;60475;-49
2023/02/13 13:17:00;;;;;;;3.60;2.50;;;;;;;;;;106055;1250;60358;-49
2023/02/13 13:19:32;;;;;;;5.50;3.30;;;;;;;;;;105282;1251;61998;-48
2023/02/13 13:22:16;;;;;;;3.50;2.60;;;;;;;;;;105080;1251;60503;-48
2023/02/13 13:24:57;;;;;;;2.60;2.40;;;;;;;;;;105159;1251;60910;-48
2023/02/13 13:27:26;;;;;;;5.50;2.60;;;;;;;;;;105312;1251;60514;-50
2023/02/13 13:29:57;;;;;;;3.90;2.90;;;;;;;;;;105261;1251;60875;-53
2023/02/13 13:32:25;;;;;;;6.90;3.50;;;;;;;;;;105977;1253;61028;-51
2023/02/13 13:34:53;;;;;;;3.50;2.70;;;;;;;;;;105359;1251;60412;-48
2023/02/13 13:37:25;;;;;;;5.70;4.00;;;;;;;;;;106011;1250;59561;-52
2023/02/13 13:39:56;;;;;;;6.10;3.60;;;;;;;;;;106737;1250;60535;-50
2023/02/13 13:42:31;;;;;;;6.10;4.40;;;;;;;;;;105332;1250;60415;-47
2023/02/13 13:44:59;;;;;;;;;;;;;;;;;;109433;1250;60928;-49
2023/02/13 13:47:44;;;;;;;6.70;4.20;;;;;;;;;;106526;1250;60401;-46
2023/02/13 13:50:12;;;;;;;;;;;;;;;;;;105145;1251;60373;-48
2023/02/13 13:52:40;;;;;;;5.10;3.30;;;;;;;;;;105236;1250;60978;-47
2023/02/13 13:55:08;;;;;;;5.20;2.70;;;;;;;;;;109189;1256;58688;-50
2023/02/13 13:57:39;;;;;;;6.00;3.60;;;;;;;;;;105645;1254;62721;-51
2023/02/13 14:00:07;;;;;;;3.90;3.20;;;;;;;;;;105378;1250;60430;-51
2023/02/13 14:02:39;;;;;;;4.20;2.90;;;;;;;;;;106970;1251;60768;-52
2023/02/13 14:05:17;;;;;;;4.70;3.30;;;;;;;;;;106098;1253;60443;-49
2023/02/13 14:07:47;;;;;;;5.50;3.10;;;;;;;;;;105232;1251;60575;-49
2023/02/13 14:10:24;;;;;;;4.50;3.30;;;;;;;;;;105153;1251;62107;-52
2023/02/13 14:12:55;;;;;;;4.10;3.00;;;;;;;;;;105300;1253;59596;-49
2023/02/13 14:15:38;;;;;;;3.60;2.60;;;;;;;;;;105209;1250;60799;-48
2023/02/13 14:18:16;;;;;;;4.60;3.20;;;;;;;;;;105267;1250;60745;-49
2023/02/13 14:20:49;;;;;;;2.40;1.60;;;;;;;;;;105369;1250;60402;-51
2023/02/13 14:23:24;;;;;;;2.10;1.40;;;;;;;;;;105801;1251;62109;-50
2023/02/13 14:26:17;;;;;;;2.70;2.10;;;;;;;;;;105441;1254;60344;-49
2023/02/13 14:28:48;;;;;;;2.60;1.80;;;;;;;;;;107099;1250;60996;-47
2023/02/13 14:31:22;;;;;;;4.20;2.20;;;;;;;;;;105511;1250;60675;-49
2023/02/13 14:34:14;;;;;;;2.40;1.90;;;;;;;;;;107131;1250;60344;-52
2023/02/13 14:36:46;;;;;;;3.60;1.70;;;;;;;;;;106948;1250;61940;-48
2023/02/13 14:39:19;;;;;;;1.90;1.10;;;;;;;;;;106199;1257;60332;-54
2023/02/13 14:41:50;;;;;;;1.90;1.20;;;;;;;;;;105397;1250;60706;-48
2023/02/13 14:44:31;;;;;;;1.30;1.10;;;;;;;;;;105112;1251;60520;-50
2023/02/13 14:46:59;;;;;;;1.80;1.30;;;;;;;;;;105974;1250;60552;-50
2023/02/13 14:49:28;;;;;;;2.60;1.20;;;;;;;;;;106182;1250;61934;-52
2023/02/13 14:51:56;;;;;;;2.10;1.80;;;;;;;;;;105512;1257;60410;-48
2023/02/13 14:54:28;;;;;;;3.60;2.20;;;;;;;;;;106228;1254;61641;-51
2023/02/13 14:57:16;;;;;;;4.40;2.70;;;;;;;;;;105610;1254;60422;-50
2023/02/13 14:59:46;;;;;;;5.30;2.90;;;;;;;;;;105397;1252;60530;-49
2023/02/13 15:02:15;;;;;;;4.60;3.20;;;;;;;;;;106946;1250;62097;-48
2023/02/13 15:04:44;;;;;;;6.00;3.10;;;;;;;;;;105971;1256;60565;-47
2023/02/13 15:07:13;;;;;;;5.00;2.90;;;;;;;;;;105582;1251;60796;-52
2023/02/13 15:09:44;;;;;;;3.90;2.50;;;;;;;;;;105755;1254;60375;-47
2023/02/13 15:12:27;;;;;;;4.30;2.90;;;;;;;;;;105540;1251;60341;-52
2023/02/13 15:14:55;;;;;;;3.50;2.10;;;;;;;;;;105410;1252;150156;-48
2023/02/13 15:19:13;;;;;;;5.00;3.10;;;;;;;;;;102079;1290;600422;-47
2023/02/13 15:21:49;;;;;;;5.50;3.40;;;;;;;;;;106262;1266;59017;-47
2023/02/13 15:24:17;;;;;;;5.10;3.40;;;;;;;;;;104319;1263;59126;-49
2023/02/13 15:26:48;;;;;;;7.10;4.60;;;;;;;;;;104796;1263;60505;-51
2023/02/13 15:29:18;;;;;;;8.00;4.20;;;;;;;;;;105746;1264;59017;-50
2023/02/13 15:31:56;;;;;;;6.30;4.00;;;;;;;;;;104263;1264;176516;-50
2023/02/13 15:34:28;;;;;;;6.00;3.80;;;;;;;;;;105156;1262;59012;-51
2023/02/13 15:36:56;;;;;;;5.60;3.30;;;;;;;;;;105649;1266;59030;-49
2023/02/13 15:39:25;;;;;;;4.40;3.00;;;;;;;;;;105274;1264;60530;-49